Time;durP1;ratioP1;P1;durP2;ratioP2;P2;SDS_P1;SDS_P2;PMS_P1;PMS_P2;Temp;Humidity;BMP_temperature;BMP_pressure;BME280_temperature;BME280_humidity;BME280_pressure;Samples;Min_cycle;Max_cycle;Signal;HPM_P1;HPM_P2
2021/12/05 00:22:48;;;;;;;29.55;8.50;;;;;;;;;;5040250;28;20126;-61
2021/12/05 00:25:18;;;;;;;28.42;9.27;;;;;;;;;;5040017;28;20107;-61
2021/12/05 00:27:57;;;;;;;36.53;9.43;;;;;;;;;;5046209;28;20044;-60
2021/12/05 01:10:53;;;;;;;22.13;5.45;;;;;;;;;;5039721;28;21086;-60
2021/12/05 01:15:59;;;;;;;18.92;5.55;;;;;;;;;;5039059;28;20804;-59
2021/12/05 01:18:29;;;;;;;18.60;6.15;;;;;;;;;;5038727;28;20024;-59
2021/12/05 01:21:05;;;;;;;21.98;5.93;;;;;;;;;;5039707;28;20036;-60
2021/12/05 01:26:14;;;;;;;14.23;4.13;;;;;;;;;;5039979;28;20048;-59
2021/12/05 01:29:06;;;;;;;15.23;5.50;;;;;;;;;;5037644;28;20033;-60
2021/12/05 01:31:50;;;;;;;14.27;4.70;;;;;;;;;;5035927;28;20489;-60
2021/12/05 01:37:13;;;;;;;16.40;4.93;;;;;;;;;;5038167;28;20717;-59
2021/12/05 01:52:55;;;;;;;24.45;6.10;;;;;;;;;;5040075;28;20433;-59
2021/12/05 02:09:24;;;;;;;21.53;6.83;;;;;;;;;;5041406;28;20040;-60
2021/12/05 02:36:59;;;;;;;21.73;6.75;;;;;;;;;;5038936;28;20206;-59
2021/12/05 02:41:49;;;;;;;16.60;7.95;;;;;;;;;;5052337;28;20032;-61
2021/12/05 02:46:46;;;;;;;18.88;6.85;;;;;;;;;;5038219;28;20724;-60
2021/12/05 02:49:14;;;;;;;21.23;6.93;;;;;;;;;;5036531;28;20518;-60
2021/12/05 02:51:51;;;;;;;18.35;6.43;;;;;;;;;;5041890;28;20025;-59
2021/12/05 02:54:18;;;;;;;20.67;7.03;;;;;;;;;;5038050;28;20411;-59
2021/12/05 02:56:50;;;;;;;13.63;5.57;;;;;;;;;;5051012;28;20561;-60
2021/12/05 03:02:09;;;;;;;13.95;6.28;;;;;;;;;;5036851;28;20029;-59
2021/12/05 03:04:36;;;;;;;15.67;6.43;;;;;;;;;;5035006;28;21904;-58
2021/12/05 03:07:09;;;;;;;15.10;6.13;;;;;;;;;;5038697;28;20036;-59
2021/12/05 03:09:39;;;;;;;12.02;5.95;;;;;;;;;;5035429;28;20103;-58
2021/12/05 03:12:06;;;;;;;24.20;7.80;;;;;;;;;;5035215;28;20039;-58
2021/12/05 03:14:34;;;;;;;14.80;6.28;;;;;;;;;;5020569;28;20805;-58
2021/12/05 03:17:02;;;;;;;18.63;6.85;;;;;;;;;;5036749;28;20087;-59
2021/12/05 03:19:43;;;;;;;13.98;6.13;;;;;;;;;;5017144;28;20048;-59
2021/12/05 03:22:11;;;;;;;17.33;6.88;;;;;;;;;;5023962;28;20064;-59
2021/12/05 03:24:37;;;;;;;19.67;7.63;;;;;;;;;;5051378;28;20043;-59
2021/12/05 03:27:04;;;;;;;14.02;7.38;;;;;;;;;;5037469;28;20771;-59
2021/12/05 03:29:33;;;;;;;24.35;6.45;;;;;;;;;;5037722;28;20062;-59
2021/12/05 03:31:58;;;;;;;19.05;6.13;;;;;;;;;;5038679;28;20499;-59
2021/12/05 03:34:25;;;;;;;18.45;7.07;;;;;;;;;;5036354;28;20024;-59
2021/12/05 03:36:55;;;;;;;15.25;6.53;;;;;;;;;;5036642;28;20029;-59
2021/12/05 03:39:23;;;;;;;18.25;5.57;;;;;;;;;;5037751;28;20804;-59
2021/12/05 03:41:48;;;;;;;18.48;6.78;;;;;;;;;;5036316;28;20028;-58
2021/12/05 03:44:15;;;;;;;21.17;7.25;;;;;;;;;;5036158;28;20029;-58
2021/12/05 03:46:43;;;;;;;27.17;7.07;;;;;;;;;;5036931;28;20445;-58
2021/12/05 03:49:10;;;;;;;19.90;7.32;;;;;;;;;;5017716;28;20106;-58
2021/12/05 03:51:37;;;;;;;26.75;7.10;;;;;;;;;;5037921;28;20016;-59
2021/12/05 03:54:06;;;;;;;14.52;6.78;;;;;;;;;;5017920;28;20052;-60
2021/12/05 03:56:32;;;;;;;18.17;7.20;;;;;;;;;;5040534;28;20037;-59
2021/12/05 03:58:57;;;;;;;24.48;7.40;;;;;;;;;;5051216;28;20045;-59
2021/12/05 04:01:25;;;;;;;17.75;7.75;;;;;;;;;;5020131;28;20044;-60
2021/12/05 04:03:52;;;;;;;19.27;8.15;;;;;;;;;;5035754;28;20021;-61
2021/12/05 04:06:18;;;;;;;18.67;7.88;;;;;;;;;;5037213;28;20472;-59
2021/12/05 04:08:43;;;;;;;33.20;8.80;;;;;;;;;;5052109;28;20032;-61
2021/12/05 04:11:11;;;;;;;26.05;8.55;;;;;;;;;;5034445;28;20146;-59
2021/12/05 04:13:38;;;;;;;30.23;9.20;;;;;;;;;;5039868;28;20047;-59
2021/12/05 04:19:18;;;;;;;24.55;8.15;;;;;;;;;;5033796;28;20028;-59
2021/12/05 04:21:44;;;;;;;23.75;8.07;;;;;;;;;;5037050;28;20719;-59
2021/12/05 04:24:11;;;;;;;25.27;9.00;;;;;;;;;;5034924;28;20123;-59
2021/12/05 04:26:48;;;;;;;23.20;8.85;;;;;;;;;;5036209;28;20028;-59
2021/12/05 04:29:14;;;;;;;23.85;8.82;;;;;;;;;;5035065;28;20448;-60
2021/12/05 04:31:40;;;;;;;17.40;8.07;;;;;;;;;;5023077;28;20044;-60
2021/12/05 04:34:08;;;;;;;31.08;9.90;;;;;;;;;;5019089;28;20090;-62
2021/12/05 04:39:46;;;;;;;23.33;8.23;;;;;;;;;;5035269;28;20113;-60
2021/12/05 04:42:14;;;;;;;31.05;9.00;;;;;;;;;;5034782;28;20637;-60
2021/12/05 04:44:41;;;;;;;22.25;9.25;;;;;;;;;;5036440;28;20033;-59
2021/12/05 04:47:10;;;;;;;35.40;10.05;;;;;;;;;;5033683;28;20033;-60
2021/12/05 04:49:39;;;;;;;21.10;8.90;;;;;;;;;;5050506;28;20036;-59
2021/12/05 04:52:08;;;;;;;31.50;10.75;;;;;;;;;;5022260;28;20032;-60
2021/12/05 04:54:34;;;;;;;23.08;9.75;;;;;;;;;;5036625;28;20037;-59
2021/12/05 04:57:00;;;;;;;37.67;10.20;;;;;;;;;;5035279;28;20035;-59
2021/12/05 04:59:35;;;;;;;38.58;12.15;;;;;;;;;;5033127;28;20151;-59
2021/12/05 05:02:00;;;;;;;24.55;10.38;;;;;;;;;;5035313;28;20987;-60
2021/12/05 05:04:28;;;;;;;36.05;10.15;;;;;;;;;;5050643;28;20093;-60
2021/12/05 05:06:57;;;;;;;38.55;11.43;;;;;;;;;;5037605;28;20488;-60
2021/12/05 05:09:25;;;;;;;38.15;11.52;;;;;;;;;;5035667;28;20025;-60
2021/12/05 05:11:51;;;;;;;27.60;10.60;;;;;;;;;;5037796;28;21077;-59
2021/12/05 05:14:19;;;;;;;31.63;11.75;;;;;;;;;;5040165;28;20028;-60
2021/12/05 05:16:47;;;;;;;42.92;12.63;;;;;;;;;;5039651;28;20056;-61
2021/12/05 05:19:15;;;;;;;33.03;10.48;;;;;;;;;;5036376;28;20032;-58
2021/12/05 05:21:48;;;;;;;25.20;11.20;;;;;;;;;;5024504;28;20055;-60
2021/12/05 05:27:40;;;;;;;27.63;9.70;;;;;;;;;;5019872;28;20028;-61
2021/12/05 05:39:13;;;;;;;30.10;10.30;;;;;;;;;;5036966;28;20099;-60
2021/12/05 05:39:38;;;;;;;34.72;10.07;;;;;;;;;;5033744;28;20003;-59
2021/12/05 05:52:11;;;;;;;28.65;10.10;;;;;;;;;;5037000;28;20135;-59
2021/12/05 05:54:39;;;;;;;30.77;8.55;;;;;;;;;;5019054;28;20656;-59
2021/12/05 05:57:20;;;;;;;21.60;9.00;;;;;;;;;;5024297;28;20049;-59
2021/12/05 06:00:03;;;;;;;28.15;10.52;;;;;;;;;;5005172;28;20048;-59
2021/12/05 06:05:18;;;;;;;23.30;8.43;;;;;;;;;;5036388;28;20043;-59
2021/12/05 06:07:45;;;;;;;25.58;9.18;;;;;;;;;;5034232;28;20024;-59
2021/12/05 06:10:18;;;;;;;27.70;9.15;;;;;;;;;;5019413;28;20158;-60
2021/12/05 06:12:44;;;;;;;22.20;8.38;;;;;;;;;;5036219;28;20039;-59
2021/12/05 06:15:12;;;;;;;26.95;9.23;;;;;;;;;;5034511;28;20130;-59
2021/12/05 06:17:38;;;;;;;24.20;7.97;;;;;;;;;;5032494;28;20029;-61
2021/12/05 06:20:07;;;;;;;27.83;8.95;;;;;;;;;;5032815;28;20025;-61
2021/12/05 06:22:33;;;;;;;24.35;7.85;;;;;;;;;;5032472;28;20141;-58
2021/12/05 06:25:03;;;;;;;29.67;8.65;;;;;;;;;;5048378;28;20033;-58
2021/12/05 06:27:30;;;;;;;26.20;8.60;;;;;;;;;;5033052;28;20107;-60
2021/12/05 06:30:06;;;;;;;17.48;7.63;;;;;;;;;;5033106;28;20372;-60
2021/12/05 06:45:58;;;;;;;19.65;7.78;;;;;;;;;;5039466;28;20036;-61
2021/12/05 06:46:12;;;;;;;24.60;7.85;;;;;;;;;;5037318;28;20456;-60
2021/12/05 06:48:40;;;;;;;15.50;6.57;;;;;;;;;;5037646;28;20039;-60
2021/12/05 06:51:06;;;;;;;16.90;6.47;;;;;;;;;;5038819;28;20107;-59
2021/12/05 06:53:35;;;;;;;28.13;7.47;;;;;;;;;;5036727;28;20102;-60
2021/12/05 06:56:00;;;;;;;29.30;7.47;;;;;;;;;;5041187;28;20136;-60
2021/12/05 06:58:32;;;;;;;25.45;6.82;;;;;;;;;;5039121;28;20033;-60
2021/12/05 07:01:04;;;;;;;24.08;6.55;;;;;;;;;;5024138;28;20732;-61
2021/12/05 07:03:36;;;;;;;26.85;6.82;;;;;;;;;;5041083;28;20032;-60
2021/12/05 07:08:31;;;;;;;27.90;7.18;;;;;;;;;;5036740;28;20028;-62
2021/12/05 07:11:11;;;;;;;27.33;7.35;;;;;;;;;;5039447;28;20033;-59
2021/12/05 07:16:25;;;;;;;24.02;7.63;;;;;;;;;;5037262;28;20052;-59
2021/12/05 07:21:32;;;;;;;19.45;6.40;;;;;;;;;;5037445;28;20052;-59
2021/12/05 07:42:41;;;;;;;19.52;6.30;;;;;;;;;;5037434;28;20398;-61
2021/12/05 07:45:07;;;;;;;16.90;5.65;;;;;;;;;;5034777;28;20075;-59
2021/12/05 07:47:40;;;;;;;18.40;6.50;;;;;;;;;;5053570;28;20025;-59
2021/12/05 07:50:11;;;;;;;19.95;6.75;;;;;;;;;;5005309;28;20037;-60
2021/12/05 07:52:42;;;;;;;22.05;5.63;;;;;;;;;;5024225;28;20055;-59
2021/12/05 07:55:20;;;;;;;16.98;7.25;;;;;;;;;;5022558;28;20036;-59
2021/12/05 08:00:28;;;;;;;22.23;7.30;;;;;;;;;;5037594;28;20051;-59
2021/12/05 08:16:45;;;;;;;21.60;6.32;;;;;;;;;;5035836;28;20106;-59
2021/12/05 08:19:10;;;;;;;18.52;6.72;;;;;;;;;;5037191;28;20044;-61
2021/12/05 08:21:36;;;;;;;21.20;6.03;;;;;;;;;;5016294;28;20036;-59
2021/12/05 08:24:04;;;;;;;14.05;7.13;;;;;;;;;;5034579;28;20043;-60
2021/12/05 08:26:33;;;;;;;21.95;5.85;;;;;;;;;;5040606;28;20072;-59
2021/12/05 09:28:40;;;;;;;19.08;7.18;;;;;;;;;;5016285;28;20032;-61
2021/12/05 10:02:11;;;;;;;23.67;8.52;;;;;;;;;;5050251;28;20039;-61
2021/12/05 10:10:14;;;;;;;18.48;8.55;;;;;;;;;;5052053;28;20132;-60
2021/12/05 10:16:32;;;;;;;21.42;7.55;;;;;;;;;;5055096;28;20376;-60
2021/12/05 10:39:12;;;;;;;26.73;8.88;;;;;;;;;;5027729;28;20357;-62
2021/12/05 10:44:16;;;;;;;20.67;8.02;;;;;;;;;;5025537;28;20114;-60
2021/12/05 10:46:46;;;;;;;26.48;8.18;;;;;;;;;;5012185;28;20024;-61
2021/12/05 10:49:32;;;;;;;35.17;9.05;;;;;;;;;;5031352;28;20047;-62
2021/12/05 10:51:58;;;;;;;19.73;8.02;;;;;;;;;;5027229;28;20033;-62
2021/12/05 10:54:25;;;;;;;21.15;7.75;;;;;;;;;;5028756;28;20154;-61
2021/12/05 10:56:55;;;;;;;25.55;8.25;;;;;;;;;;5013205;28;20049;-60
2021/12/05 10:59:23;;;;;;;20.13;7.72;;;;;;;;;;5028108;28;20044;-61
2021/12/05 11:05:35;;;;;;;20.17;7.65;;;;;;;;;;5053193;28;20481;-60
2021/12/05 11:08:01;;;;;;;25.23;8.20;;;;;;;;;;5051827;28;20620;-60
2021/12/05 11:10:29;;;;;;;25.02;8.05;;;;;;;;;;5053919;28;20132;-62
2021/12/05 11:12:57;;;;;;;24.65;8.40;;;;;;;;;;5051024;28;20028;-61
2021/12/05 11:15:25;;;;;;;34.20;9.65;;;;;;;;;;5053739;28;20386;-60
2021/12/05 11:17:50;;;;;;;20.30;7.72;;;;;;;;;;5037369;28;20032;-61
2021/12/05 11:20:47;;;;;;;25.73;7.85;;;;;;;;;;5053820;28;20036;-61
2021/12/05 11:23:20;;;;;;;25.55;7.97;;;;;;;;;;5019137;28;20923;-61
2021/12/05 11:25:50;;;;;;;21.92;8.13;;;;;;;;;;5052739;28;20046;-61
2021/12/05 11:28:24;;;;;;;29.35;8.23;;;;;;;;;;5020222;28;20036;-61
2021/12/05 11:30:49;;;;;;;24.10;8.90;;;;;;;;;;5036634;28;20115;-61
2021/12/05 11:33:19;;;;;;;24.83;7.70;;;;;;;;;;5052357;28;20460;-61
2021/12/05 11:35:52;;;;;;;21.58;8.20;;;;;;;;;;5035750;28;20052;-61
2021/12/05 11:38:19;;;;;;;25.15;7.65;;;;;;;;;;5034195;28;21047;-60
2021/12/05 11:40:49;;;;;;;24.25;8.55;;;;;;;;;;5048649;28;20920;-61
2021/12/05 11:43:21;;;;;;;19.33;7.65;;;;;;;;;;5031012;28;20143;-62
2021/12/05 11:46:03;;;;;;;22.10;6.97;;;;;;;;;;5051887;28;20032;-60
2021/12/05 11:49:08;;;;;;;21.83;7.63;;;;;;;;;;5051011;28;20113;-62
2021/12/05 11:51:44;;;;;;;20.90;7.57;;;;;;;;;;4990503;28;20026;-63
2021/12/05 11:54:36;;;;;;;13.85;7.65;;;;;;;;;;4990707;28;20042;-62
2021/12/05 11:57:11;;;;;;;13.00;6.93;;;;;;;;;;4975625;28;20152;-61
2021/12/05 11:59:42;;;;;;;19.15;7.30;;;;;;;;;;5001164;28;20054;-61
2021/12/05 12:02:27;;;;;;;17.15;7.53;;;;;;;;;;5050242;28;20114;-60
2021/12/05 12:04:55;;;;;;;17.50;6.82;;;;;;;;;;5033313;28;20036;-62
2021/12/05 12:07:21;;;;;;;19.90;6.63;;;;;;;;;;5052103;28;20024;-63
2021/12/05 12:09:53;;;;;;;18.98;7.03;;;;;;;;;;5034067;28;20044;-61
2021/12/05 12:12:19;;;;;;;18.08;7.00;;;;;;;;;;5032838;28;20036;-62
2021/12/05 12:14:45;;;;;;;14.27;7.40;;;;;;;;;;5017526;28;20098;-62
2021/12/05 12:17:16;;;;;;;14.45;6.90;;;;;;;;;;5053713;28;20121;-62
2021/12/05 12:19:46;;;;;;;18.45;6.88;;;;;;;;;;5054364;28;20028;-62
2021/12/05 12:22:19;;;;;;;14.98;7.15;;;;;;;;;;5036662;28;21918;-62
2021/12/05 12:25:13;;;;;;;19.95;7.38;;;;;;;;;;5051616;28;20135;-62
2021/12/05 12:27:43;;;;;;;17.48;6.88;;;;;;;;;;5051622;28;20029;-62
2021/12/05 12:30:30;;;;;;;18.05;7.13;;;;;;;;;;5039504;28;20051;-63
2021/12/05 12:33:03;;;;;;;15.10;6.60;;;;;;;;;;5051830;28;20095;-61
2021/12/05 12:35:32;;;;;;;15.73;6.65;;;;;;;;;;5050084;28;20034;-61
2021/12/05 12:38:07;;;;;;;12.45;6.95;;;;;;;;;;5051133;28;20403;-62
2021/12/05 12:40:44;;;;;;;21.95;7.97;;;;;;;;;;5053231;28;20032;-62
2021/12/05 12:43:32;;;;;;;16.23;7.28;;;;;;;;;;5033978;28;20039;-61
2021/12/05 12:45:57;;;;;;;18.50;6.82;;;;;;;;;;5040167;28;20183;-62
2021/12/05 12:48:38;;;;;;;12.50;6.28;;;;;;;;;;5033490;28;20034;-61
2021/12/05 12:51:03;;;;;;;22.25;6.40;;;;;;;;;;5051316;28;20047;-61
2021/12/05 12:53:37;;;;;;;14.50;7.00;;;;;;;;;;5018083;28;20024;-63
2021/12/05 12:56:19;;;;;;;18.75;7.00;;;;;;;;;;5053009;28;20039;-63
2021/12/05 12:58:49;;;;;;;17.02;7.07;;;;;;;;;;5033432;28;20028;-62
2021/12/05 13:01:19;;;;;;;15.55;7.63;;;;;;;;;;5017980;28;20039;-61
2021/12/05 13:12:44;;;;;;;17.42;6.38;;;;;;;;;;5033945;28;20092;-62
2021/12/05 13:15:12;;;;;;;16.67;6.60;;;;;;;;;;5051397;28;20136;-62
2021/12/05 13:17:48;;;;;;;13.98;5.97;;;;;;;;;;5053878;28;20131;-63
2021/12/05 13:20:17;;;;;;;10.23;5.82;;;;;;;;;;5025008;28;20101;-63
2021/12/05 13:22:59;;;;;;;19.27;6.50;;;;;;;;;;5034378;28;20035;-63
2021/12/05 13:25:28;;;;;;;19.63;6.90;;;;;;;;;;5052865;28;20020;-63
2021/12/05 13:27:57;;;;;;;22.00;6.18;;;;;;;;;;5034057;28;20024;-63
2021/12/05 13:30:31;;;;;;;10.35;5.90;;;;;;;;;;5033676;28;20060;-63
2021/12/05 13:33:23;;;;;;;14.45;6.28;;;;;;;;;;5024813;28;20557;-63
2021/12/05 13:35:57;;;;;;;15.85;6.97;;;;;;;;;;5047343;28;20032;-62
2021/12/05 13:38:32;;;;;;;12.75;6.18;;;;;;;;;;5006007;28;20028;-62
2021/12/05 13:41:41;;;;;;;12.50;6.72;;;;;;;;;;5033916;28;20039;-63
2021/12/05 13:44:07;;;;;;;17.50;6.38;;;;;;;;;;5050132;28;20036;-62
2021/12/05 13:46:33;;;;;;;15.77;6.78;;;;;;;;;;5018580;28;20024;-62
2021/12/05 13:49:22;;;;;;;13.88;5.75;;;;;;;;;;5052743;28;20021;-63
2021/12/05 13:51:53;;;;;;;11.82;6.10;;;;;;;;;;5012334;28;22048;-63
2021/12/05 13:54:26;;;;;;;13.32;6.63;;;;;;;;;;5054993;28;20527;-62
2021/12/05 13:57:12;;;;;;;18.00;6.30;;;;;;;;;;5057217;28;20040;-63
2021/12/05 13:59:40;;;;;;;12.32;5.70;;;;;;;;;;5036357;28;20895;-62
2021/12/05 14:02:08;;;;;;;22.23;6.97;;;;;;;;;;5054951;28;20020;-63
2021/12/05 14:04:38;;;;;;;19.55;6.97;;;;;;;;;;5052724;28;20691;-64
2021/12/05 14:07:06;;;;;;;20.98;7.00;;;;;;;;;;5037764;28;20024;-62
2021/12/05 14:09:32;;;;;;;17.15;7.03;;;;;;;;;;5054970;28;20053;-64
2021/12/05 14:12:18;;;;;;;17.85;7.43;;;;;;;;;;5055028;28;20032;-63
2021/12/05 14:14:45;;;;;;;17.98;7.53;;;;;;;;;;5024041;28;20064;-62
2021/12/05 14:17:24;;;;;;;17.55;7.57;;;;;;;;;;5033327;28;20077;-63
2021/12/05 14:20:05;;;;;;;21.02;7.25;;;;;;;;;;5053314;28;20114;-63
2021/12/05 14:22:34;;;;;;;17.55;7.80;;;;;;;;;;5056954;28;20025;-64
2021/12/05 14:25:10;;;;;;;18.00;7.43;;;;;;;;;;5029957;28;20020;-63
2021/12/05 14:27:42;;;;;;;21.20;7.28;;;;;;;;;;5053550;28;20032;-63
2021/12/05 14:30:10;;;;;;;20.75;6.93;;;;;;;;;;5052435;28;20025;-64
2021/12/05 14:32:37;;;;;;;15.52;7.38;;;;;;;;;;5036846;28;20060;-62
2021/12/05 14:35:02;;;;;;;31.13;9.98;;;;;;;;;;5019070;28;20042;-63
2021/12/05 14:37:33;;;;;;;23.83;8.98;;;;;;;;;;5054726;28;20037;-63
2021/12/05 14:40:09;;;;;;;29.27;9.45;;;;;;;;;;5036882;28;20037;-62
2021/12/05 14:42:41;;;;;;;28.15;8.75;;;;;;;;;;5056471;28;20119;-63
2021/12/05 14:45:11;;;;;;;22.00;8.88;;;;;;;;;;5051681;28;20104;-64
2021/12/05 14:47:42;;;;;;;20.40;9.00;;;;;;;;;;5053483;28;20032;-63
2021/12/05 14:50:09;;;;;;;24.42;10.05;;;;;;;;;;5054843;28;20032;-63
2021/12/05 14:52:38;;;;;;;25.13;9.18;;;;;;;;;;5043722;28;21422;-63
2021/12/05 14:55:05;;;;;;;24.27;8.38;;;;;;;;;;5055108;28;20033;-63
2021/12/05 14:57:35;;;;;;;22.23;9.57;;;;;;;;;;5038460;28;20800;-63
2021/12/05 15:00:00;;;;;;;31.30;10.20;;;;;;;;;;5052238;28;20043;-64
2021/12/05 15:02:30;;;;;;;21.75;10.05;;;;;;;;;;5033943;28;20062;-63
2021/12/05 15:04:56;;;;;;;20.38;8.45;;;;;;;;;;5034915;28;20028;-63
2021/12/05 15:07:23;;;;;;;19.63;8.10;;;;;;;;;;5038669;28;20032;-64
2021/12/05 15:10:00;;;;;;;24.35;8.13;;;;;;;;;;5032939;28;20159;-63
2021/12/05 15:12:30;;;;;;;18.52;8.77;;;;;;;;;;5037815;28;20037;-62
2021/12/05 15:14:59;;;;;;;20.17;8.30;;;;;;;;;;5050878;28;20029;-62
2021/12/05 15:17:26;;;;;;;28.30;8.70;;;;;;;;;;5051203;28;20111;-62
2021/12/05 15:20:01;;;;;;;26.77;9.43;;;;;;;;;;5051365;28;20020;-62
2021/12/05 15:22:29;;;;;;;33.13;9.20;;;;;;;;;;5037416;28;20021;-61
2021/12/05 15:24:56;;;;;;;29.73;9.10;;;;;;;;;;5036731;28;20032;-64
2021/12/05 15:27:23;;;;;;;20.67;8.98;;;;;;;;;;5033664;28;20032;-63
2021/12/05 15:29:58;;;;;;;23.20;8.23;;;;;;;;;;5033258;28;20128;-63
2021/12/05 15:32:30;;;;;;;26.08;9.23;;;;;;;;;;5032552;28;20453;-63
2021/12/05 15:34:59;;;;;;;23.90;9.63;;;;;;;;;;5033629;28;20535;-63
2021/12/05 15:37:27;;;;;;;22.48;9.48;;;;;;;;;;5032652;28;20083;-63
2021/12/05 15:39:57;;;;;;;30.98;9.90;;;;;;;;;;5035051;28;20471;-63
2021/12/05 15:42:23;;;;;;;24.55;9.90;;;;;;;;;;5030920;28;20163;-63
2021/12/05 15:44:54;;;;;;;26.77;9.23;;;;;;;;;;5028924;28;20079;-64
2021/12/05 15:47:21;;;;;;;33.67;9.82;;;;;;;;;;5032977;28;20060;-63
2021/12/05 15:49:54;;;;;;;28.20;9.32;;;;;;;;;;5031584;28;20054;-63
2021/12/05 15:52:31;;;;;;;25.60;10.32;;;;;;;;;;5014683;28;20158;-63
2021/12/05 15:55:09;;;;;;;38.78;10.95;;;;;;;;;;5047140;28;20128;-63
2021/12/05 15:57:38;;;;;;;26.70;12.13;;;;;;;;;;5034991;28;20025;-64
2021/12/05 16:00:07;;;;;;;47.38;16.05;;;;;;;;;;5031575;28;20164;-61
2021/12/05 16:02:33;;;;;;;43.97;13.13;;;;;;;;;;5032273;28;20127;-64
2021/12/05 16:05:01;;;;;;;29.95;12.73;;;;;;;;;;5033041;28;20036;-61
2021/12/05 16:07:28;;;;;;;41.13;13.40;;;;;;;;;;5031124;28;20201;-62
2021/12/05 16:10:07;;;;;;;30.15;12.88;;;;;;;;;;5033516;28;20045;-63
2021/12/05 16:12:39;;;;;;;33.03;12.32;;;;;;;;;;5032640;28;20040;-62
2021/12/05 16:15:07;;;;;;;28.83;12.40;;;;;;;;;;5031300;28;20029;-63
2021/12/05 16:17:35;;;;;;;30.10;12.35;;;;;;;;;;5030421;28;20043;-63
2021/12/05 16:20:10;;;;;;;44.53;13.55;;;;;;;;;;5048293;28;20029;-65
2021/12/05 16:22:57;;;;;;;33.25;13.52;;;;;;;;;;5035014;28;21964;-64
2021/12/05 16:25:28;;;;;;;39.28;12.90;;;;;;;;;;5014904;28;20021;-63
2021/12/05 16:28:01;;;;;;;29.17;11.98;;;;;;;;;;5032946;28;20053;-64
2021/12/05 16:30:32;;;;;;;35.40;12.88;;;;;;;;;;5032401;28;20029;-63
2021/12/05 16:33:01;;;;;;;30.83;12.80;;;;;;;;;;5048304;28;20029;-63
2021/12/05 16:35:28;;;;;;;39.17;14.23;;;;;;;;;;5032232;28;20120;-64
2021/12/05 16:37:58;;;;;;;41.20;14.55;;;;;;;;;;5014155;28;20032;-63
2021/12/05 16:40:24;;;;;;;37.72;14.55;;;;;;;;;;5045751;28;20073;-63
2021/12/05 16:43:05;;;;;;;31.45;13.10;;;;;;;;;;5030996;28;20056;-61
2021/12/05 16:45:36;;;;;;;35.15;13.27;;;;;;;;;;5029478;28;20029;-63
2021/12/05 16:48:02;;;;;;;33.22;12.95;;;;;;;;;;5031613;28;20048;-63
2021/12/05 16:50:30;;;;;;;34.97;13.23;;;;;;;;;;5030212;28;20032;-62
2021/12/05 16:52:56;;;;;;;37.47;13.80;;;;;;;;;;5031631;28;20407;-63
2021/12/05 16:55:27;;;;;;;37.40;13.55;;;;;;;;;;5044927;28;20175;-62
2021/12/05 16:58:08;;;;;;;36.95;13.10;;;;;;;;;;5032580;28;20043;-63
2021/12/05 17:00:36;;;;;;;38.65;14.13;;;;;;;;;;5030150;28;20040;-62
2021/12/05 17:03:07;;;;;;;39.40;13.65;;;;;;;;;;5033331;28;20025;-63
2021/12/05 17:05:38;;;;;;;43.65;14.27;;;;;;;;;;5031855;28;20029;-63
2021/12/05 17:08:11;;;;;;;34.67;12.15;;;;;;;;;;5045747;28;20368;-61
2021/12/05 17:10:39;;;;;;;37.70;12.68;;;;;;;;;;5052921;28;20051;-63
2021/12/05 17:13:08;;;;;;;42.92;15.45;;;;;;;;;;5052731;28;20064;-61
2021/12/05 17:15:37;;;;;;;39.95;14.18;;;;;;;;;;5033367;28;20500;-63
2021/12/05 17:18:04;;;;;;;33.20;13.63;;;;;;;;;;5049996;28;20027;-62
2021/12/05 17:20:36;;;;;;;37.65;13.77;;;;;;;;;;5050644;28;20171;-62
2021/12/05 17:23:03;;;;;;;42.65;14.18;;;;;;;;;;5033877;28;20032;-64
2021/12/05 17:25:36;;;;;;;35.17;15.63;;;;;;;;;;5049088;28;20043;-64
2021/12/05 17:28:04;;;;;;;37.30;13.75;;;;;;;;;;5053626;28;20040;-63
2021/12/05 17:30:30;;;;;;;35.78;13.77;;;;;;;;;;5034749;28;20439;-63
2021/12/05 17:33:03;;;;;;;44.50;13.32;;;;;;;;;;5050675;28;20518;-63
2021/12/05 17:35:29;;;;;;;37.72;12.93;;;;;;;;;;5033191;28;20430;-63
2021/12/05 17:37:55;;;;;;;35.80;14.35;;;;;;;;;;5033759;28;20028;-63
2021/12/05 17:40:20;;;;;;;43.75;14.48;;;;;;;;;;5050715;28;20043;-63
2021/12/05 17:42:50;;;;;;;38.15;13.23;;;;;;;;;;5034022;28;20945;-62
2021/12/05 17:45:21;;;;;;;47.38;15.30;;;;;;;;;;5032458;28;20070;-63
2021/12/05 17:47:46;;;;;;;43.58;14.88;;;;;;;;;;5002636;28;20242;-62
2021/12/05 17:50:20;;;;;;;45.92;15.73;;;;;;;;;;5046508;28;20498;-62
2021/12/05 17:52:47;;;;;;;43.70;14.77;;;;;;;;;;5053830;28;20029;-62
2021/12/05 17:55:22;;;;;;;35.25;14.57;;;;;;;;;;5050428;28;20123;-63
2021/12/05 17:58:00;;;;;;;46.45;14.93;;;;;;;;;;5035480;28;20086;-64
2021/12/05 18:02:55;;;;;;;42.85;15.45;;;;;;;;;;5032005;28;20097;-62
2021/12/05 18:05:27;;;;;;;44.58;15.05;;;;;;;;;;5049630;28;20031;-62
2021/12/05 18:07:57;;;;;;;43.85;14.77;;;;;;;;;;5051444;28;20032;-62
2021/12/05 18:10:28;;;;;;;52.00;16.42;;;;;;;;;;5032515;28;20048;-62
2021/12/05 18:12:57;;;;;;;37.42;15.07;;;;;;;;;;5033391;28;20020;-63
2021/12/05 18:15:27;;;;;;;41.97;14.38;;;;;;;;;;5030793;28;20098;-62
2021/12/05 18:17:57;;;;;;;34.78;13.43;;;;;;;;;;5033295;28;20060;-62
2021/12/05 18:20:29;;;;;;;40.72;13.75;;;;;;;;;;5034839;28;20031;-63
2021/12/05 18:22:56;;;;;;;32.53;13.55;;;;;;;;;;5050047;28;20791;-63
2021/12/05 18:25:25;;;;;;;31.98;13.45;;;;;;;;;;5032996;28;20025;-63
2021/12/05 18:27:50;;;;;;;35.35;13.05;;;;;;;;;;5033523;28;20111;-63
2021/12/05 18:30:22;;;;;;;44.05;14.85;;;;;;;;;;5034486;28;20038;-63
2021/12/05 18:32:57;;;;;;;41.22;14.98;;;;;;;;;;5054252;28;20047;-63
2021/12/05 18:35:34;;;;;;;32.90;13.65;;;;;;;;;;5053672;28;20037;-64
2021/12/05 18:38:07;;;;;;;37.35;14.88;;;;;;;;;;5054717;28;20117;-63
2021/12/05 18:40:43;;;;;;;38.70;14.65;;;;;;;;;;5052066;28;20032;-62
2021/12/05 18:43:11;;;;;;;36.13;13.60;;;;;;;;;;5056618;28;20155;-63
2021/12/05 18:45:41;;;;;;;34.10;14.10;;;;;;;;;;5054833;28;20111;-64
2021/12/05 18:48:11;;;;;;;34.53;13.27;;;;;;;;;;5013462;28;20151;-64
2021/12/05 18:50:39;;;;;;;34.10;13.30;;;;;;;;;;5011177;28;20028;-64
2021/12/05 18:53:10;;;;;;;31.30;13.00;;;;;;;;;;5053300;28;20036;-61
2021/12/05 18:55:36;;;;;;;33.00;11.95;;;;;;;;;;5053237;28;20158;-62
2021/12/05 18:58:08;;;;;;;33.20;13.82;;;;;;;;;;5053282;28;20129;-62
2021/12/05 19:04:17;;;;;;;29.83;12.23;;;;;;;;;;5054502;28;20032;-61
2021/12/05 19:06:18;;;;;;;33.38;13.13;;;;;;;;;;5054265;28;20116;-63
2021/12/05 19:09:14;;;;;;;32.28;13.18;;;;;;;;;;5016772;28;20061;-63
2021/12/05 19:11:47;;;;;;;34.58;14.63;;;;;;;;;;5049260;28;20040;-62
2021/12/05 19:14:25;;;;;;;30.92;13.27;;;;;;;;;;5048200;28;20029;-63
2021/12/05 19:16:59;;;;;;;38.22;15.57;;;;;;;;;;5035044;28;20036;-63
2021/12/05 19:19:30;;;;;;;38.38;15.20;;;;;;;;;;5035649;28;20029;-62
2021/12/05 19:21:58;;;;;;;38.10;14.80;;;;;;;;;;5036017;28;20338;-61
2021/12/05 19:24:24;;;;;;;40.28;14.43;;;;;;;;;;5033283;28;20123;-62
2021/12/05 19:26:53;;;;;;;39.83;15.27;;;;;;;;;;5033360;28;20044;-61
2021/12/05 19:29:24;;;;;;;35.55;14.85;;;;;;;;;;5033475;28;20468;-64
2021/12/05 19:31:51;;;;;;;34.70;14.55;;;;;;;;;;5032997;28;20033;-63
2021/12/05 19:34:17;;;;;;;34.05;14.35;;;;;;;;;;5034238;28;20044;-62
2021/12/05 19:36:43;;;;;;;33.63;13.82;;;;;;;;;;5033973;28;20044;-62
2021/12/05 19:39:09;;;;;;;33.95;13.70;;;;;;;;;;5031544;28;20028;-61
2021/12/05 19:41:34;;;;;;;27.40;13.23;;;;;;;;;;5048131;28;20048;-61
2021/12/05 19:44:03;;;;;;;27.55;12.10;;;;;;;;;;5031389;28;20076;-62
2021/12/05 19:46:33;;;;;;;32.60;12.48;;;;;;;;;;5032229;28;20028;-64
2021/12/05 19:49:04;;;;;;;28.65;11.90;;;;;;;;;;5030272;28;20112;-64
2021/12/05 19:51:30;;;;;;;30.40;13.05;;;;;;;;;;5030454;28;20021;-63
2021/12/05 19:54:00;;;;;;;26.00;10.75;;;;;;;;;;5028300;28;20060;-63
2021/12/05 19:56:29;;;;;;;25.08;11.55;;;;;;;;;;5035292;28;20044;-63
2021/12/05 19:58:55;;;;;;;29.17;11.25;;;;;;;;;;5030756;28;21372;-64
2021/12/05 20:01:26;;;;;;;24.42;10.48;;;;;;;;;;5047296;28;20080;-63
2021/12/05 20:03:51;;;;;;;25.23;11.60;;;;;;;;;;5045823;28;20029;-63
2021/12/05 20:06:21;;;;;;;21.17;10.18;;;;;;;;;;5032721;28;20017;-62
2021/12/05 20:08:47;;;;;;;23.58;10.10;;;;;;;;;;5048687;28;20146;-63
2021/12/05 20:11:16;;;;;;;18.63;10.32;;;;;;;;;;5033084;28;20119;-63
2021/12/05 20:13:41;;;;;;;26.58;10.85;;;;;;;;;;5029923;28;20461;-65
2021/12/05 20:16:09;;;;;;;21.67;10.52;;;;;;;;;;5030389;28;20036;-63
2021/12/05 20:18:35;;;;;;;21.75;9.57;;;;;;;;;;5035694;28;20080;-64
2021/12/05 20:21:03;;;;;;;21.08;8.65;;;;;;;;;;5033413;28;20124;-62
2021/12/05 20:23:34;;;;;;;20.48;9.27;;;;;;;;;;5033584;28;20147;-63
2021/12/05 20:26:05;;;;;;;20.77;9.98;;;;;;;;;;5032210;28;20055;-62
2021/12/05 20:28:35;;;;;;;18.13;8.85;;;;;;;;;;5031950;28;20119;-63
2021/12/05 20:31:00;;;;;;;20.85;9.70;;;;;;;;;;5032661;28;20362;-62
2021/12/05 20:33:34;;;;;;;21.15;10.32;;;;;;;;;;5032698;28;20048;-64
2021/12/05 20:36:00;;;;;;;20.08;9.32;;;;;;;;;;5047847;28;20513;-63
2021/12/05 20:38:26;;;;;;;20.15;10.25;;;;;;;;;;5030947;28;20025;-65
2021/12/05 20:40:51;;;;;;;25.42;10.57;;;;;;;;;;5030946;28;20698;-62